Latest Coastal Weather Observations for Frankston

IDV60701

Issued at 6:25 am EST Wednesday 24 September 2014 (issued every 10 minutes, with the page automatically refreshed every 10 minutes)

About coastal observations | Map of coastal stations | Coastal observations for VIC | Marine services | Other Formats
Station Details ID: 086371 Name: FRANKSTON AWS Lat: -38.15 Lon: 145.12 Height: 6.0 m
Data from the previous 72 hours. | See also: Recent months at Frankston
Date/Time
EST
Temp

°C
Wind Pressure Rain
since 9am
mm
Weather Cloud Vis
km
Sea
Height
m
Swell
Dir
 
Speed
knots
Gust
knots
hPa Trend Height
m
Period
s
Dir
24/06:00am 16.9 ESE 3 4 - - - - - - - - - -
24/05:30am 17.2 E 3 8 - - - - - - - - - -
24/05:00am 16.7 ESE 3 4 - - - - - - - - - -
24/04:30am 17.3 E 4 6 - - - - - - - - - -
24/04:00am 17.2 ESE 2 4 - - - - - - - - - -
24/03:30am 17.2 ENE 4 7 - - - - - - - - - -
24/03:00am 17.0 E 4 6 - - - - - - - - - -
24/02:30am 17.5 E 4 6 - - - - - - - - - -
24/02:00am 16.9 ESE 3 5 - - - - - - - - - -
24/01:30am 16.5 E 4 6 - - - - - - - - - -
24/01:00am 16.9 E 6 8 - - - - - - - - - -
24/12:30am 17.1 E 5 7 - - - - - - - - - -
24/12:00am 17.3 ESE 6 9 - - - - - - - - - -
 
Date/Time
EST
Temp

°C
Wind Pressure Rain
since 9am
mm
Weather Cloud Vis
km
Sea
Height
m
Swell
Dir
 
Speed
knots
Gust
knots
hPa Trend Height
m
Period
s
Dir
23/11:30pm 17.6 E 4 6 - - - - - - - - - -
23/11:00pm 17.9 ESE 5 8 - - - - - - - - - -
23/10:30pm 18.4 E 6 9 - - - - - - - - - -
23/10:00pm 18.5 E 5 7 - - - - - - - - - -
23/09:30pm 18.9 E 5 8 - - - - - - - - - -
23/09:00pm 19.3 E 5 7 - - - - - - - - - -
23/08:30pm 19.3 ESE 4 6 - - - - - - - - - -
23/08:00pm 20.0 E 4 6 - - - - - - - - - -
23/07:30pm 20.6 NNE 3 4 - - - - - - - - - -
23/07:00pm 21.8 ENE 3 5 - - - - - - - - - -
23/06:30pm 22.5 NE 4 6 - - - - - - - - - -
23/06:00pm 23.0 NNE 6 8 - - - - - - - - - -
23/05:30pm 20.6 N 6 8 - - - - - - - - - -
23/05:00pm 21.7 N 6 8 - - - - - - - - - -
23/04:30pm 21.9 N 5 7 - - - - - - - - - -
23/04:00pm 23.4 N 2 3 - - - - - - - - - -
23/03:30pm 23.6 N 1 3 - - - - - - - - - -
23/03:00pm 23.5 CALM 0 0 - - - - - - - - - -
23/02:30pm 22.6 SW 2 2 - - - - - - - - - -
23/02:00pm 21.5 WSW 2 3 - - - - - - - - - -
23/01:30pm 20.8 W 2 5 - - - - - - - - - -
23/01:00pm 20.1 NW 1 2 - - - - - - - - - -
23/12:30pm 19.7 NW 1 2 - - - - - - - - - -
23/12:00pm 18.9 CALM 0 3 - - - - - - - - - -
23/11:30am 18.6 N 6 8 - - - - - - - - - -
23/11:00am 17.6 N 7 8 - - - - - - - - - -
23/10:30am 17.6 N 8 9 - - - - - - - - - -
23/10:00am 17.5 N 6 8 - - - - - - - - - -
23/09:30am 17.2 NNE 6 8 - - - - - - - - - -
23/09:00am 16.9 NNE 4 5 - - - - - - - - - -
23/08:30am 15.7 NNE 2 4 - - - - - - - - - -
23/08:00am 15.7 E 2 2 - - - - - - - - - -
23/07:30am 14.8 E 2 3 - - - - - - - - - -
23/07:00am 12.5 SE 2 3 - - - - - - - - - -
23/06:30am 13.3 E 2 3 - - - - - - - - - -
23/06:00am 12.1 ESE 2 3 - - - - - - - - - -
23/05:30am 12.0 SE 3 4 - - - - - - - - - -
23/05:00am 11.7 SE 3 5 - - - - - - - - - -
23/04:30am 11.9 ESE 3 5 - - - - - - - - - -
23/04:00am 12.0 ESE 3 5 - - - - - - - - - -
23/03:30am 12.2 ESE 3 5 - - - - - - - - - -
23/03:00am 11.9 ESE 3 6 - - - - - - - - - -
23/02:30am 12.5 ESE 2 3 - - - - - - - - - -
23/02:00am 14.2 ESE 1 2 - - - - - - - - - -
23/01:30am 13.7 E 2 3 - - - - - - - - - -
23/01:00am 12.7 SE 3 4 - - - - - - - - - -
23/12:30am 11.9 ESE 2 3 - - - - - - - - - -
23/12:00am 13.3 E 1 2 - - - - - - - - - -
 
Date/Time
EST
Temp

°C
Wind Pressure Rain
since 9am
mm
Weather Cloud Vis
km
Sea
Height
m
Swell
Dir
 
Speed
knots
Gust
knots
hPa Trend Height
m
Period
s
Dir
22/11:30pm 13.9 CALM 0 0 - - - - - - - - - -
22/11:00pm 15.2 ESE 2 4 - - - - - - - - - -
22/10:30pm 14.7 SE 3 5 - - - - - - - - - -
22/10:00pm 15.4 SE 5 6 - - - - - - - - - -
22/09:30pm 15.5 SE 6 7 - - - - - - - - - -
22/09:00pm 15.7 SE 5 7 - - - - - - - - - -
22/08:30pm 16.1 SE 5 7 - - - - - - - - - -
22/08:00pm 15.9 SE 4 7 - - - - - - - - - -
22/07:30pm 16.1 SE 6 9 - - - - - - - - - -
22/07:00pm 16.4 SE 6 11 - - - - - - - - - -
22/06:30pm 17.3 SSE 6 11 - - - - - - - - - -
22/06:00pm 19.0 SE 5 10 - - - - - - - - - -
22/05:30pm 20.1 CALM 0 2 - - - - - - - - - -
22/05:00pm 22.2 CALM 0 1 - - - - - - - - - -
22/04:30pm 19.9 CALM 0 0 - - - - - - - - - -
22/04:00pm 20.1 CALM 0 0 - - - - - - - - - -
22/03:30pm 19.5 CALM 0 0 - - - - - - - - - -
22/03:00pm 18.9 WSW 3 3 - - - - - - - - - -
22/02:30pm 17.7 WSW 7 8 - - - - - - - - - -
22/02:00pm 18.1 WSW 5 6 - - - - - - - - - -
22/01:30pm 17.1 WSW 7 8 - - - - - - - - - -
22/01:00pm 15.3 WSW 7 8 - - - - - - - - - -
22/12:30pm 14.9 WSW 4 5 - - - - - - - - - -
22/12:00pm 15.4 WSW 2 2 - - - - - - - - - -
22/11:30am 14.4 W 2 2 - - - - - - - - - -
22/11:00am 13.6 WSW 3 3 - - - - - - - - - -
22/10:30am 11.0 W 1 2 - - - - - - - - - -
22/10:00am 10.3 W 2 2 - - - - - - - - - -
22/09:30am 9.7 CALM 0 2 - - - - - - - - - -
22/09:00am 9.4 CALM 0 0 - - - - - - - - - -
22/08:30am 9.1 CALM 0 0 - - - - - - - - - -
22/08:00am 8.7 CALM 0 0 - - - - - - - - - -
22/07:30am 8.5 CALM 0 1 - - - - - - - - - -
22/07:00am 7.0 ESE 2 2 - - - - - - - - - -
22/06:30am 5.9 SE 2 3 - - - - - - - - - -
22/06:00am 6.9 E 1 2 - - - - - - - - - -
22/05:30am 7.0 E 3 4 - - - - - - - - - -
22/05:00am 7.6 E 3 5 - - - - - - - - - -
22/04:30am 7.3 ESE 4 5 - - - - - - - - - -
22/04:00am 7.2 ESE 4 5 - - - - - - - - - -
22/03:30am 7.1 ESE 3 5 - - - - - - - - - -
22/03:00am 7.3 E 2 3 - - - - - - - - - -
22/02:30am 7.5 E 2 3 - - - - - - - - - -
22/02:00am 8.2 SE 2 3 - - - - - - - - - -
22/01:30am 8.4 ESE 3 3 - - - - - - - - - -
22/01:00am 8.3 SE 3 4 - - - - - - - - - -
22/12:30am 8.4 ESE 2 2 - - - - - - - - - -
22/12:00am 8.7 E 2 3 - - - - - - - - - -
 
Date/Time
EST
Temp

°C
Wind Pressure Rain
since 9am
mm
Weather Cloud Vis
km
Sea
Height
m
Swell
Dir
 
Speed
knots
Gust
knots
hPa Trend Height
m
Period
s
Dir
21/11:30pm 9.4 ESE 2 3 - - - - - - - - - -
21/11:00pm 9.8 ESE 3 4 - - - - - - - - - -
21/10:30pm 9.9 ESE 3 4 - - - - - - - - - -
21/10:00pm 10.4 ESE 3 4 - - - - - - - - - -
21/09:30pm 10.9 ESE 3 4 - - - - - - - - - -
21/09:00pm 11.1 SSE 3 7 - - - - - - - - - -
21/08:30pm 11.1 SSE 3 6 - - - - - - - - - -
21/08:00pm 11.1 S 4 7 - - - - - - - - - -
21/07:30pm 11.2 SSE 3 7 - - - - - - - - - -
21/07:00pm 11.4 S 3 6 - - - - - - - - - -
21/06:30pm 11.9 S 3 5 - - - - - - - - - -
21/06:00pm 12.7 S 4 10 - - - - - - - - - -
21/05:30pm 13.6 S 5 10 - - - - - - - - - -
21/05:00pm 14.2 S 6 10 - - - - - - - - - -
21/04:30pm 13.4 WSW 12 15 - - - - - - - - - -
21/04:00pm 13.2 WSW 13 15 - - - - - - - - - -
21/03:30pm 13.1 WSW 12 13 - - - - - - - - - -
21/03:00pm 13.0 W 9 11 - - - - - - - - - -
21/02:30pm 13.0 W 8 9 - - - - - - - - - -
21/02:00pm 13.0 W 9 10 - - - - - - - - - -
21/01:30pm 13.0 W 8 10 - - - - - - - - - -
21/01:00pm 14.6 WSW 3 5 - - - - - - - - - -
21/12:30pm 14.3 SSE 3 5 - - - - - - - - - -
21/12:00pm 14.9 ESE 2 4 - - - - - - - - - -
21/11:30am 13.7 SSE 4 6 - - - - - - - - - -
21/11:00am 13.2 S 4 9 - - - - - - - - - -
21/10:30am 13.5 ESE 4 7 - - - - - - - - - -
21/10:00am 13.4 SE 4 7 - - - - - - - - - -
21/09:30am 12.9 S 3 5 - - - - - - - - - -
21/09:00am 12.9 SSW 1 3 - - - - - - - - - -
21/08:30am 12.8 SSE 3 5 - - - - - - - - - -
21/08:00am 12.2 S 2 3 - - - - - - - - - -
21/07:30am 11.7 S 1 2 - - - - - - - - - -
21/07:00am 11.4 SSE 2 2 - - - - - - - - - -
21/06:30am 11.3 SE 2 3 - - - - - - - - - -

Other Formats:

Comma delimited format used in spreadsheet applications
http://www.bom.gov.au/fwo/IDV60701/IDV60701.94871.axf

JavaScript Object Notation format (JSON) in row-major order
http://www.bom.gov.au/fwo/IDV60701/IDV60701.94871.json